Randolph, New York
Current Conditions -  °F | °C
As of 3:15 AM on Thursday 18 Dec 2014 (Local Time) from KJHW Reporting Station
Overcast Overcast  
Wind Chill: 15°   Ceiling: 1600
Heat Index: 27°   Visibility: 10mi
Dew Point: 19°   Wind: 14mph
Humidity: 74%   Direction: 270°W
Pressure: 30.04"   Gusts: 21mph
Location:  42.16°N, 78.98°W
Report Text: KJHW 180815Z 27012G18KT 10SM OVC016 M03/M07 A3004 RMK AO1
Loading
Personal Weather Stations






























Interactive Weather Map New forecast layout! Learn more

10-Day Weather Forecast

Advertisements
Track Severe Weather on mobile